createdAt,value
2022-08-10T00:01:52.482Z,2.63
2022-08-10T00:04:23.371Z,2.47
2022-08-10T00:06:54.913Z,2.30
2022-08-10T00:09:22.502Z,2.37
2022-08-10T00:11:49.124Z,1.90
2022-08-10T00:14:16.045Z,2.43
2022-08-10T00:16:42.576Z,2.27
2022-08-10T00:19:09.815Z,3.20
2022-08-10T00:21:36.723Z,2.70
2022-08-10T00:24:04.064Z,2.90
2022-08-10T00:27:51.854Z,2.70
2022-08-10T00:29:17.181Z,2.73
2022-08-10T00:31:58.673Z,2.37
2022-08-10T00:34:30.711Z,3.00
2022-08-10T00:36:58.071Z,3.07
2022-08-10T00:39:25.953Z,2.87
2022-08-10T00:42:01.688Z,2.67
2022-08-10T00:44:53.630Z,3.00
2022-08-10T00:47:36.479Z,3.10
2022-08-10T00:50:05.955Z,2.60
2022-08-10T00:52:33.551Z,2.40
2022-08-10T00:55:02.909Z,2.50
2022-08-10T00:57:29.633Z,2.70
2022-08-10T00:59:59.407Z,3.10
2022-08-10T01:02:32.156Z,3.00
2022-08-10T01:05:02.264Z,2.47
2022-08-10T01:07:49.230Z,2.73
2022-08-10T01:10:20.421Z,3.33
2022-08-10T01:13:02.237Z,3.03
2022-08-10T01:15:32.343Z,2.50
2022-08-10T01:18:05.097Z,2.63
2022-08-10T01:21:29.136Z,2.97
2022-08-10T01:24:14.339Z,2.70
2022-08-10T01:26:50.746Z,3.13
2022-08-10T01:29:42.503Z,2.90
2022-08-10T01:32:11.679Z,3.27
2022-08-10T01:35:18.704Z,3.03
2022-08-10T01:37:58.882Z,2.87
2022-08-10T01:40:27.967Z,3.37
2022-08-10T01:42:59.831Z,3.43
2022-08-10T01:45:44.489Z,3.10
2022-08-10T01:48:31.056Z,2.87
2022-08-10T01:51:05.084Z,2.90
2022-08-10T01:53:41.738Z,2.47
2022-08-10T01:56:11.371Z,3.40
2022-08-10T01:58:38.722Z,2.90
2022-08-10T02:01:08.024Z,2.50
2022-08-10T02:03:35.772Z,2.73
2022-08-10T02:06:25.202Z,3.20
2022-08-10T02:09:05.746Z,3.10
2022-08-10T02:11:55.806Z,3.53
2022-08-10T02:14:21.827Z,3.10
2022-08-10T02:16:51.582Z,2.70
2022-08-10T02:19:20.799Z,3.00
2022-08-10T02:22:37.115Z,3.47
2022-08-10T02:24:39.694Z,3.30
2022-08-10T02:27:06.625Z,3.73
2022-08-10T02:29:34.251Z,3.30
2022-08-10T02:32:01.468Z,3.90
2022-08-10T02:34:28.489Z,4.67
2022-08-10T02:36:57.333Z,4.67
2022-08-10T02:39:24.892Z,3.93
2022-08-10T02:45:08.286Z,5.00
2022-08-10T02:45:29.658Z,5.37
2022-08-10T02:48:09.180Z,4.60
2022-08-10T02:50:36.966Z,4.73
2022-08-10T02:53:56.331Z,4.50
2022-08-10T02:56:27.925Z,4.40
2022-08-10T02:59:04.337Z,4.23
2022-08-10T03:01:34.410Z,4.10
2022-08-10T03:04:05.538Z,4.20
2022-08-10T03:06:39.420Z,3.87
2022-08-10T03:09:07.594Z,3.70
2022-08-10T03:12:37.158Z,4.03
2022-08-10T03:14:22.971Z,4.20
2022-08-10T03:16:51.000Z,4.90
2022-08-10T03:20:34.625Z,4.40
2022-08-10T03:22:07.516Z,4.53
2022-08-10T03:24:34.532Z,4.50
2022-08-10T03:27:01.620Z,4.33
2022-08-10T03:29:28.759Z,3.80
2022-08-10T03:31:55.525Z,4.03
2022-08-10T03:34:32.826Z,3.57
2022-08-10T03:37:00.811Z,4.83
2022-08-10T03:39:27.657Z,4.93
2022-08-10T03:41:56.109Z,4.60
2022-08-10T03:44:28.997Z,4.97
2022-08-10T03:46:55.892Z,5.13
2022-08-10T03:49:23.380Z,4.60
2022-08-10T03:51:51.474Z,4.70
2022-08-10T03:54:18.817Z,4.80
2022-08-10T03:56:45.879Z,4.30
2022-08-10T03:59:14.624Z,3.63
2022-08-10T04:02:45.762Z,4.67
2022-08-10T04:04:29.787Z,9.63
2022-08-10T04:06:58.140Z,9.23
2022-08-10T04:09:55.074Z,4.67
2022-08-10T04:12:20.420Z,4.40
2022-08-10T04:14:50.965Z,4.40
2022-08-10T04:18:03.253Z,4.47
2022-08-10T04:20:34.713Z,5.30
2022-08-10T04:23:05.843Z,5.33
2022-08-10T04:25:32.929Z,5.53
2022-08-10T04:27:59.745Z,5.10
2022-08-10T04:30:28.038Z,5.60
2022-08-10T04:32:55.407Z,5.30
2022-08-10T04:35:23.984Z,5.30
2022-08-10T04:37:51.811Z,5.30
2022-08-10T04:40:29.741Z,5.53
2022-08-10T04:43:11.347Z,4.90
2022-08-10T04:45:49.651Z,5.07
2022-08-10T04:48:43.016Z,5.63
2022-08-10T04:51:06.416Z,5.83
2022-08-10T04:53:34.000Z,5.70
2022-08-10T04:56:20.614Z,6.03
2022-08-10T04:58:58.544Z,6.37
2022-08-10T05:01:25.184Z,8.07
2022-08-10T05:04:34.789Z,6.07
2022-08-10T05:06:38.263Z,4.87
2022-08-10T05:09:04.778Z,5.60
2022-08-10T05:11:31.335Z,6.40
2022-08-10T05:13:57.857Z,5.60
2022-08-10T05:16:32.307Z,6.20
2022-08-10T05:18:59.504Z,5.57
2022-08-10T05:22:03.660Z,6.17
2022-08-10T05:24:12.595Z,5.50
2022-08-10T05:26:54.906Z,5.47
2022-08-10T05:29:23.958Z,5.47
2022-08-10T05:31:50.678Z,5.70
2022-08-10T05:34:20.743Z,5.60
2022-08-10T05:36:47.972Z,6.53
2022-08-10T05:39:15.092Z,6.43
2022-08-10T05:41:46.059Z,6.17
2022-08-10T05:44:13.773Z,5.40
2022-08-10T05:46:40.933Z,5.67
2022-08-10T05:49:07.476Z,6.40
2022-08-10T05:51:34.041Z,6.53
2022-08-10T05:54:05.567Z,6.23
2022-08-10T05:56:55.378Z,5.43
2022-08-10T06:00:29.365Z,5.47
2022-08-10T06:02:31.851Z,6.20
2022-08-10T06:05:05.905Z,5.83
2022-08-10T06:07:33.408Z,4.60
2022-08-10T06:10:00.654Z,5.33
2022-08-10T06:12:36.417Z,6.20
2022-08-10T06:15:21.606Z,6.13
2022-08-10T06:18:04.976Z,5.80
2022-08-10T06:20:35.964Z,4.83
2022-08-10T06:23:04.622Z,5.47
2022-08-10T06:26:08.543Z,5.33
2022-08-10T06:28:19.528Z,5.17
2022-08-10T06:30:46.824Z,4.60
2022-08-10T06:33:13.934Z,4.40
2022-08-10T06:35:41.285Z,5.00
2022-08-10T06:38:08.642Z,5.00
2022-08-10T06:40:40.529Z,4.30
2022-08-10T06:43:09.960Z,4.17
2022-08-10T06:45:43.194Z,4.17
2022-08-10T06:48:16.549Z,4.40
2022-08-10T06:50:58.659Z,4.20
2022-08-10T06:53:51.992Z,3.93
2022-08-10T06:56:17.939Z,4.00
2022-08-10T06:58:53.121Z,4.30
2022-08-10T07:01:24.183Z,3.93
2022-08-10T07:04:05.615Z,3.83
2022-08-10T07:06:34.259Z,5.00
2022-08-10T07:09:01.967Z,4.27
2022-08-10T07:11:29.057Z,4.37
2022-08-10T07:14:16.647Z,4.10
2022-08-10T07:16:45.711Z,3.97
2022-08-10T07:19:12.933Z,4.70
2022-08-10T07:21:42.027Z,4.63
2022-08-10T07:24:14.096Z,3.80
2022-08-10T07:26:45.774Z,3.70
2022-08-10T07:29:53.887Z,3.83
2022-08-10T07:32:02.809Z,4.50
2022-08-10T07:34:30.316Z,4.57
2022-08-10T07:37:02.967Z,4.80
2022-08-10T07:40:01.783Z,4.00
2022-08-10T07:42:20.640Z,4.50
2022-08-10T07:44:48.311Z,3.67
2022-08-10T07:47:18.648Z,3.77
2022-08-10T07:50:08.053Z,3.60
2022-08-10T07:52:35.548Z,3.83
2022-08-10T07:55:03.793Z,3.57
2022-08-10T07:57:34.821Z,3.67
2022-08-10T08:00:08.400Z,3.87
2022-08-10T08:02:37.634Z,3.13
2022-08-10T08:05:09.863Z,3.50
2022-08-10T08:07:40.612Z,3.83
2022-08-10T08:10:09.567Z,3.30
2022-08-10T08:12:38.412Z,3.17
2022-08-10T08:16:14.268Z,3.33
2022-08-10T08:17:59.869Z,4.47
2022-08-10T08:20:27.545Z,3.07
2022-08-10T08:24:05.336Z,3.30
2022-08-10T08:25:43.407Z,3.23
2022-08-10T08:28:10.630Z,3.50
2022-08-10T08:30:38.673Z,3.80
2022-08-10T08:33:06.546Z,3.43
2022-08-10T08:35:33.436Z,2.80
2022-08-10T08:38:29.534Z,2.87
2022-08-10T08:40:54.855Z,2.73
2022-08-10T08:44:06.900Z,3.50
2022-08-10T08:46:59.311Z,3.10
2022-08-10T08:50:09.627Z,3.37
2022-08-10T08:54:02.244Z,3.23
2022-08-10T08:57:03.793Z,3.00
2022-08-10T08:59:55.060Z,2.93
2022-08-10T09:02:36.967Z,3.37
2022-08-10T09:05:06.445Z,3.00
2022-08-10T09:08:03.318Z,2.90
2022-08-10T09:10:54.402Z,2.63
2022-08-10T09:13:41.196Z,3.03
2022-08-10T09:16:37.848Z,2.90
2022-08-10T09:19:34.885Z,3.13
2022-08-10T09:22:18.314Z,3.40
2022-08-10T09:24:59.530Z,3.70
2022-08-10T09:27:50.542Z,3.70
2022-08-10T09:30:32.946Z,3.20
2022-08-10T09:36:20.692Z,3.47
2022-08-10T09:36:22.290Z,2.73
2022-08-10T09:39:03.758Z,3.30
2022-08-10T09:41:34.006Z,3.20
2022-08-10T09:44:08.995Z,3.20
2022-08-10T09:46:54.417Z,3.00
2022-08-10T09:50:04.358Z,3.57
2022-08-10T09:52:58.704Z,3.50
2022-08-10T09:56:17.694Z,3.33
2022-08-10T09:59:27.086Z,3.37
2022-08-10T10:02:02.868Z,3.30
2022-08-10T10:04:57.075Z,3.23
2022-08-10T10:07:26.801Z,3.40
2022-08-10T10:10:01.412Z,3.70
2022-08-10T10:12:46.356Z,3.40
2022-08-10T10:15:27.933Z,3.67
2022-08-10T10:18:21.891Z,3.53
2022-08-10T10:21:03.902Z,3.20
2022-08-10T10:24:23.253Z,3.30
2022-08-10T10:27:01.866Z,3.50
2022-08-10T10:29:57.091Z,4.20
2022-08-10T10:32:39.351Z,3.28
2022-08-10T10:35:37.084Z,3.90
2022-08-10T10:38:07.809Z,3.60
2022-08-10T10:40:40.174Z,3.53
2022-08-10T10:43:32.726Z,3.92
2022-08-10T10:46:07.949Z,3.85
2022-08-10T10:48:58.880Z,3.95
2022-08-10T10:51:54.930Z,3.85
2022-08-10T10:54:36.143Z,3.20
2022-08-10T10:57:21.622Z,3.85
2022-08-10T11:00:09.939Z,3.83
2022-08-10T11:03:13.642Z,4.22
2022-08-10T11:06:09.508Z,3.45
2022-08-10T11:08:44.617Z,3.72
2022-08-10T11:12:00.307Z,3.75
2022-08-10T11:14:35.995Z,3.87
2022-08-10T11:17:12.123Z,3.33
2022-08-10T11:20:12.297Z,3.47
2022-08-10T11:22:48.307Z,3.90
2022-08-10T11:25:33.996Z,3.70
2022-08-10T11:28:11.289Z,3.40
2022-08-10T11:30:59.368Z,3.60
2022-08-10T11:34:03.946Z,3.30
2022-08-10T11:36:25.407Z,3.10
2022-08-10T11:39:19.002Z,3.47
2022-08-10T11:42:07.868Z,4.07
2022-08-10T11:44:34.998Z,2.90
2022-08-10T11:47:06.656Z,3.17
2022-08-10T11:49:45.753Z,3.40
2022-08-10T11:52:20.800Z,3.10
2022-08-10T11:54:52.475Z,3.13
2022-08-10T11:57:19.652Z,3.40
2022-08-10T11:59:58.335Z,3.43
2022-08-10T12:02:36.476Z,3.30
2022-08-10T12:05:11.044Z,3.30
2022-08-10T12:10:07.865Z,3.17
2022-08-10T12:10:42.865Z,3.35
2022-08-10T12:13:19.784Z,3.38
2022-08-10T12:15:54.293Z,2.83
2022-08-10T12:18:25.319Z,3.10
2022-08-10T12:20:57.909Z,3.20
2022-08-10T12:23:39.340Z,3.00
2022-08-10T12:26:13.116Z,3.13
2022-08-10T12:29:11.982Z,2.93
2022-08-10T12:31:43.387Z,2.60
2022-08-10T12:34:20.170Z,2.90
2022-08-10T12:37:11.703Z,2.60
2022-08-10T12:39:53.269Z,2.63
2022-08-10T12:42:36.833Z,2.53
2022-08-10T12:45:14.802Z,2.50
2022-08-10T12:47:56.751Z,2.70
2022-08-10T12:50:47.233Z,2.40
2022-08-10T12:53:28.885Z,3.13
2022-08-10T12:59:48.005Z,2.13
2022-08-10T13:02:21.761Z,2.57
2022-08-10T13:04:51.313Z,2.60
2022-08-10T13:08:03.636Z,2.63
2022-08-10T13:10:15.586Z,2.40
2022-08-10T13:12:48.557Z,2.77
2022-08-10T13:15:44.989Z,2.70
2022-08-10T13:18:18.150Z,2.40
2022-08-10T13:20:51.442Z,2.47
2022-08-10T13:23:22.753Z,2.30
2022-08-10T13:25:50.593Z,2.30
2022-08-10T13:28:35.454Z,2.67
2022-08-10T13:31:06.120Z,2.50
2022-08-10T13:34:03.814Z,2.67
2022-08-10T13:36:29.219Z,2.23
2022-08-10T13:38:57.350Z,2.80
2022-08-10T13:41:28.899Z,2.30
2022-08-10T13:43:58.654Z,2.60
2022-08-10T13:46:27.738Z,2.60
2022-08-10T13:48:55.305Z,2.17
2022-08-10T13:51:56.954Z,2.30
2022-08-10T13:54:11.221Z,2.30
2022-08-10T13:56:40.882Z,3.07
2022-08-10T13:59:09.951Z,2.20
2022-08-10T14:01:37.912Z,2.23
2022-08-10T14:04:06.654Z,1.73
2022-08-10T14:06:33.620Z,2.10
2022-08-10T14:09:04.711Z,1.70
2022-08-10T14:11:32.095Z,2.40
2022-08-10T14:14:02.460Z,2.30
2022-08-10T14:16:29.605Z,2.07
2022-08-10T14:18:59.787Z,2.20
2022-08-10T14:21:27.486Z,2.30
2022-08-10T14:23:54.219Z,2.93
2022-08-10T14:26:28.886Z,2.00
2022-08-10T14:29:07.056Z,2.13
2022-08-10T14:31:36.416Z,3.13
2022-08-10T14:34:05.112Z,2.10
2022-08-10T14:36:45.416Z,2.50
2022-08-10T14:39:15.510Z,2.03
2022-08-10T14:42:02.463Z,2.30
2022-08-10T14:44:30.701Z,2.17
2022-08-10T14:46:59.266Z,2.33
2022-08-10T14:49:28.489Z,2.40
2022-08-10T14:52:01.685Z,2.70
2022-08-10T14:54:30.074Z,2.60
2022-08-10T14:57:11.526Z,2.40
2022-08-10T15:00:22.524Z,2.10
2022-08-10T15:02:40.392Z,2.30
2022-08-10T15:05:17.700Z,2.10
2022-08-10T15:07:59.453Z,2.27
2022-08-10T15:10:26.631Z,2.20
2022-08-10T15:12:55.336Z,2.53
2022-08-10T15:15:27.724Z,1.90
2022-08-10T15:17:57.735Z,2.57
2022-08-10T15:20:26.248Z,2.73
2022-08-10T15:23:05.643Z,2.60
2022-08-10T15:25:36.451Z,2.40
2022-08-10T15:28:10.355Z,2.50
2022-08-10T15:30:48.917Z,2.20
2022-08-10T15:33:57.531Z,2.87
2022-08-10T15:36:43.227Z,2.20
2022-08-10T15:39:17.242Z,2.27
2022-08-10T15:42:08.024Z,2.53
2022-08-10T15:44:39.526Z,2.70
2022-08-10T15:47:15.354Z,2.73
2022-08-10T15:49:49.615Z,2.87
2022-08-10T15:53:08.526Z,2.70
2022-08-10T15:55:53.282Z,2.83
2022-08-10T15:58:51.185Z,2.50
2022-08-10T16:02:14.285Z,2.57
2022-08-10T16:04:37.260Z,3.20
2022-08-10T16:07:18.332Z,2.50
2022-08-10T16:10:23.093Z,2.13
2022-08-10T16:12:59.710Z,2.40
2022-08-10T16:15:29.540Z,3.00
2022-08-10T16:18:16.618Z,2.80
2022-08-10T16:20:56.635Z,2.10
2022-08-10T16:23:26.300Z,2.73
2022-08-10T16:26:03.187Z,2.33
2022-08-10T16:28:34.925Z,2.30
2022-08-10T16:31:04.145Z,2.60
2022-08-10T16:33:53.176Z,2.30
2022-08-10T16:36:20.975Z,2.27
2022-08-10T16:38:48.773Z,2.57
2022-08-10T16:41:22.586Z,2.43
2022-08-10T16:44:04.348Z,2.40
2022-08-10T16:46:31.428Z,2.57
2022-08-10T16:48:59.105Z,2.40
2022-08-10T16:51:26.376Z,2.70
2022-08-10T16:53:53.817Z,2.40
2022-08-10T16:56:28.895Z,2.80
2022-08-10T16:58:56.801Z,2.60
2022-08-10T17:01:25.085Z,2.30
2022-08-10T17:04:06.906Z,2.30
2022-08-10T17:06:43.449Z,2.97
2022-08-10T17:09:17.338Z,2.80
2022-08-10T17:11:47.257Z,2.50
2022-08-10T17:14:14.042Z,2.30
2022-08-10T17:16:42.234Z,2.50
2022-08-10T17:19:12.978Z,2.60
2022-08-10T17:21:51.766Z,2.63
2022-08-10T17:24:20.281Z,2.17
2022-08-10T17:26:48.392Z,2.80
2022-08-10T17:29:57.941Z,2.33
2022-08-10T17:32:34.303Z,2.20
2022-08-10T17:35:13.739Z,2.57
2022-08-10T17:37:49.088Z,2.50
2022-08-10T17:40:18.534Z,2.77
2022-08-10T17:42:46.690Z,2.63
2022-08-10T17:45:46.315Z,2.63
2022-08-10T17:48:06.164Z,2.60
2022-08-10T17:50:33.546Z,2.70
2022-08-10T17:53:03.189Z,2.53
2022-08-10T17:55:37.718Z,2.50
2022-08-10T17:58:14.474Z,2.93
2022-08-10T18:00:43.583Z,2.60
2022-08-10T18:03:25.794Z,3.07
2022-08-10T18:05:55.846Z,2.93
2022-08-10T18:08:25.906Z,2.30
2022-08-10T18:10:57.254Z,3.13
2022-08-10T18:13:26.349Z,2.97
2022-08-10T18:15:53.310Z,2.87
2022-08-10T18:18:22.442Z,2.63
2022-08-10T18:20:52.307Z,2.60
2022-08-10T18:23:25.205Z,2.67
2022-08-10T18:25:58.122Z,3.00
2022-08-10T18:28:25.455Z,2.73
2022-08-10T18:30:53.947Z,2.43
2022-08-10T18:33:28.548Z,2.97
2022-08-10T18:35:57.041Z,2.63
2022-08-10T18:38:24.804Z,2.57
2022-08-10T18:40:54.226Z,3.40
2022-08-10T18:44:07.482Z,2.80
2022-08-10T18:46:15.970Z,2.70
2022-08-10T18:48:47.858Z,2.80
2022-08-10T18:51:15.060Z,3.37
2022-08-10T18:53:48.360Z,3.20
2022-08-10T18:56:21.208Z,2.80
2022-08-10T18:58:54.087Z,2.87
2022-08-10T19:01:43.171Z,2.90
2022-08-10T19:04:19.981Z,3.27
2022-08-10T19:06:56.230Z,3.70
2022-08-10T19:09:47.505Z,3.37
2022-08-10T19:12:30.007Z,3.10
2022-08-10T19:15:06.826Z,5.20
2022-08-10T19:18:03.959Z,3.00
2022-08-10T19:20:52.546Z,3.40
2022-08-10T19:23:41.064Z,3.30
2022-08-10T19:26:44.622Z,3.00
2022-08-10T19:29:11.047Z,2.90
2022-08-10T19:32:09.732Z,2.67
2022-08-10T19:35:03.842Z,3.03
2022-08-10T19:38:32.002Z,2.83
2022-08-10T19:41:10.585Z,2.80
2022-08-10T19:44:00.061Z,3.47
2022-08-10T19:46:34.929Z,3.00
2022-08-10T19:49:07.457Z,2.70
2022-08-10T19:51:52.418Z,3.20
2022-08-10T19:54:36.459Z,2.60
2022-08-10T19:57:31.879Z,3.10
2022-08-10T20:00:19.476Z,2.63
2022-08-10T20:02:51.639Z,2.87
2022-08-10T20:05:27.531Z,7.30
2022-08-10T20:07:59.580Z,13.30
2022-08-10T20:10:49.621Z,4.53
2022-08-10T20:13:29.939Z,3.27
2022-08-10T20:16:15.115Z,2.70
2022-08-10T20:18:44.516Z,2.60
2022-08-10T20:21:47.502Z,2.73
2022-08-10T20:24:31.560Z,2.70
2022-08-10T20:28:14.584Z,2.90
2022-08-10T20:30:03.592Z,2.53
2022-08-10T20:32:36.864Z,2.43
2022-08-10T20:35:09.313Z,2.83
2022-08-10T20:38:03.504Z,2.90
2022-08-10T20:40:31.310Z,2.33
2022-08-10T20:43:16.129Z,2.33
2022-08-10T20:46:06.910Z,2.97
2022-08-10T20:48:39.827Z,2.90
2022-08-10T20:51:10.261Z,2.50
2022-08-10T20:53:45.195Z,2.97
2022-08-10T20:56:27.579Z,2.40
2022-08-10T20:59:33.417Z,2.80
2022-08-10T21:02:24.257Z,2.93
2022-08-10T21:05:19.487Z,2.80
2022-08-10T21:08:04.563Z,2.80
2022-08-10T21:10:52.375Z,2.50
2022-08-10T21:13:48.144Z,2.33
2022-08-10T21:16:21.487Z,2.50
2022-08-10T21:19:23.107Z,2.90
2022-08-10T21:22:11.433Z,2.60
2022-08-10T21:24:46.056Z,2.70
2022-08-10T21:27:27.123Z,2.60
2022-08-10T21:30:08.996Z,2.57
2022-08-10T21:32:44.620Z,3.27
2022-08-10T21:35:20.313Z,2.93
2022-08-10T21:38:34.500Z,2.30
2022-08-10T21:41:57.551Z,2.77
2022-08-10T21:45:11.612Z,2.43
2022-08-10T21:48:18.900Z,3.13
2022-08-10T21:51:14.812Z,2.23
2022-08-10T21:54:22.119Z,2.33
2022-08-10T21:57:21.431Z,2.50
2022-08-10T22:00:13.957Z,2.70
2022-08-10T22:03:00.128Z,2.23
2022-08-10T22:05:48.310Z,2.73
2022-08-10T22:08:37.521Z,4.10
2022-08-10T22:11:31.331Z,2.90
2022-08-10T22:14:25.570Z,2.73
2022-08-10T22:18:01.185Z,2.80
2022-08-10T22:20:34.692Z,2.70
2022-08-10T22:23:27.373Z,2.80
2022-08-10T22:26:21.653Z,2.47
2022-08-10T22:29:12.550Z,2.00
2022-08-10T22:32:16.095Z,2.33
2022-08-10T22:35:21.890Z,2.20
2022-08-10T22:38:32.703Z,2.30
2022-08-10T22:41:22.178Z,2.70
2022-08-10T22:44:07.899Z,2.80
2022-08-10T22:46:53.422Z,3.13
2022-08-10T22:49:23.598Z,3.10
2022-08-10T22:51:54.713Z,2.40
2022-08-10T22:54:56.480Z,2.70
2022-08-10T22:57:49.327Z,2.57
2022-08-10T23:00:31.058Z,2.50
2022-08-10T23:03:07.606Z,2.60
2022-08-10T23:05:40.751Z,2.73
2022-08-10T23:08:45.726Z,2.50
2022-08-10T23:11:23.011Z,2.33
2022-08-10T23:14:04.516Z,2.50
2022-08-10T23:16:54.856Z,2.83
2022-08-10T23:19:30.037Z,2.30
2022-08-10T23:22:08.951Z,2.90
2022-08-10T23:24:53.614Z,2.57
2022-08-10T23:27:37.851Z,2.80
2022-08-10T23:30:17.838Z,2.77
2022-08-10T23:32:48.066Z,3.10
2022-08-10T23:36:30.663Z,2.87
2022-08-10T23:38:09.309Z,2.87
2022-08-10T23:40:36.823Z,2.60
2022-08-10T23:43:04.872Z,2.83
2022-08-10T23:45:53.021Z,2.87
2022-08-10T23:48:27.734Z,2.60
2022-08-10T23:50:58.512Z,3.10
2022-08-10T23:53:46.662Z,2.70
2022-08-10T23:56:16.797Z,2.83
2022-08-10T23:58:55.074Z,2.27
